createdAt,value
2023-02-25T00:02:11.191Z,98249.69
2023-02-25T00:04:42.198Z,98252.34
2023-02-25T00:07:11.460Z,98265.09
2023-02-25T00:09:40.144Z,98255.81
2023-02-25T00:12:09.219Z,98258.38
2023-02-25T00:14:37.879Z,98256.63
2023-02-25T00:17:06.528Z,98259.28
2023-02-25T00:19:35.155Z,98259.28
2023-02-25T00:22:05.182Z,98262.75
2023-02-25T00:24:33.849Z,98249.34
2023-02-25T00:27:02.506Z,98263.00
2023-02-25T00:29:31.243Z,98263.13
2023-02-25T00:32:00.108Z,98267.50
2023-02-25T00:34:29.291Z,98274.34
2023-02-25T00:36:58.470Z,98264.28
2023-02-25T00:39:41.933Z,98266.03
2023-02-25T00:42:11.191Z,98272.97
2023-02-25T00:44:40.099Z,98272.28
2023-02-25T00:47:08.700Z,98274.91
2023-02-25T00:49:37.383Z,98281.75
2023-02-25T00:52:06.354Z,98282.66
2023-02-25T00:54:36.669Z,98284.53
2023-02-25T00:57:05.579Z,98294.94
2023-02-25T00:59:34.593Z,98294.94
2023-02-25T01:02:03.326Z,98290.06
2023-02-25T01:04:32.376Z,98305.34
2023-02-25T01:07:03.616Z,98302.94
2023-02-25T01:09:32.540Z,98305.59
2023-02-25T01:12:02.567Z,98298.88
2023-02-25T01:14:31.336Z,98306.50
2023-02-25T01:17:02.111Z,98304.88
2023-02-25T01:19:31.143Z,98296.56
2023-02-25T01:22:00.467Z,98304.19
2023-02-25T01:24:31.534Z,98298.31
2023-02-25T01:27:04.412Z,98299.09
2023-02-25T01:29:36.920Z,98292.38
2023-02-25T01:32:06.217Z,98290.75
2023-02-25T01:34:35.185Z,98290.88
2023-02-25T01:37:05.436Z,98287.53
2023-02-25T01:39:34.611Z,98281.63
2023-02-25T01:42:08.493Z,98271.44
2023-02-25T01:45:18.609Z,98280.81
2023-02-25T01:47:52.679Z,98279.28
2023-02-25T01:50:24.180Z,98276.75
2023-02-25T01:52:53.448Z,98284.38
2023-02-25T01:55:22.480Z,98289.59
2023-02-25T01:57:53.009Z,98295.59
2023-02-25T02:00:23.067Z,98294.91
2023-02-25T02:02:52.926Z,98302.56
2023-02-25T02:05:23.889Z,98301.72
2023-02-25T02:07:52.755Z,98295.84
2023-02-25T02:10:21.504Z,98292.38
2023-02-25T02:12:51.647Z,98285.66
2023-02-25T02:15:20.330Z,98280.44
2023-02-25T02:17:55.221Z,98298.25
2023-02-25T02:20:30.040Z,98305.91
2023-02-25T02:23:35.412Z,98296.63
2023-02-25T02:26:43.676Z,98296.75
2023-02-25T02:30:04.052Z,98300.25
2023-02-25T02:32:41.004Z,98302.06
2023-02-25T02:35:21.681Z,98310.50
2023-02-25T02:38:01.659Z,98311.34
2023-02-25T02:40:45.259Z,98311.34
2023-02-25T02:43:29.166Z,98311.34
2023-02-25T02:46:05.791Z,98313.88
2023-02-25T02:48:46.237Z,98313.06
2023-02-25T02:51:22.664Z,98308.91
2023-02-25T02:53:55.644Z,98309.72
2023-02-25T02:56:27.348Z,98311.47
2023-02-25T02:59:01.324Z,98317.34
2023-02-25T03:01:33.915Z,98311.47
2023-02-25T03:04:07.470Z,98317.34
2023-02-25T03:06:40.944Z,98329.16
2023-02-25T03:09:13.691Z,98325.91
2023-02-25T03:11:43.368Z,98322.44
2023-02-25T03:14:14.163Z,98321.66
2023-02-25T03:16:48.325Z,98322.44
2023-02-25T03:19:22.516Z,98328.34
2023-02-25T03:21:59.659Z,98320.81
2023-02-25T03:24:34.236Z,98332.75
2023-02-25T03:27:21.516Z,98326.84
2023-02-25T03:29:52.154Z,98322.66
2023-02-25T03:32:21.862Z,98336.19
2023-02-25T03:34:57.443Z,98327.06
2023-02-25T03:37:30.933Z,98329.59
2023-02-25T03:40:07.254Z,98330.50
2023-02-25T03:42:36.913Z,98331.47
2023-02-25T03:45:09.723Z,98331.47
2023-02-25T03:47:39.899Z,98326.38
2023-02-25T03:50:15.523Z,98325.53
2023-02-25T03:52:47.635Z,98323.09
2023-02-25T03:55:35.955Z,98332.38
2023-02-25T03:58:04.766Z,98331.56
2023-02-25T04:00:35.379Z,98334.91
2023-02-25T04:03:04.158Z,98335.72
2023-02-25T04:05:36.066Z,98341.63
2023-02-25T04:08:04.995Z,98344.19
2023-02-25T04:10:36.000Z,98338.25
2023-02-25T04:13:05.931Z,98351.00
2023-02-25T04:15:34.580Z,98344.19
2023-02-25T04:18:04.260Z,98358.63
2023-02-25T04:20:34.674Z,98362.00
2023-02-25T04:23:03.708Z,98355.28
2023-02-25T04:25:32.365Z,98355.28
2023-02-25T04:28:01.082Z,98357.94
2023-02-25T04:30:29.762Z,98358.84
2023-02-25T04:32:58.503Z,98369.84
2023-02-25T04:35:27.184Z,98369.94
2023-02-25T04:37:57.278Z,98374.25
2023-02-25T04:40:26.539Z,98380.13
2023-02-25T04:42:55.418Z,98379.31
2023-02-25T04:45:26.962Z,98375.03
2023-02-25T04:47:58.130Z,98374.13
2023-02-25T04:50:27.595Z,98364.84
2023-02-25T04:52:58.621Z,98372.38
2023-02-25T04:55:27.207Z,98369.03
2023-02-25T04:57:55.794Z,98372.38
2023-02-25T05:00:25.536Z,98368.91
2023-02-25T05:02:54.458Z,98374.13
2023-02-25T05:05:23.098Z,98358.72
2023-02-25T05:07:52.202Z,98368.91
2023-02-25T05:10:22.321Z,98353.75
2023-02-25T05:12:50.952Z,98355.50
2023-02-25T05:15:19.808Z,98347.88
2023-02-25T05:17:49.098Z,98355.50
2023-02-25T05:20:18.431Z,98353.06
2023-02-25T05:22:47.097Z,98353.88
2023-02-25T05:25:16.006Z,98357.34
2023-02-25T05:27:45.940Z,98360.78
2023-02-25T05:30:16.007Z,98362.53
2023-02-25T05:32:44.818Z,98363.44
2023-02-25T05:35:13.499Z,98358.38
2023-02-25T05:37:42.172Z,98361.84
2023-02-25T05:40:14.204Z,98358.47
2023-02-25T05:42:42.905Z,98364.47
2023-02-25T05:45:13.251Z,98369.56
2023-02-25T05:47:41.880Z,98357.78
2023-02-25T05:50:12.337Z,98362.88
2023-02-25T05:52:41.017Z,98366.34
2023-02-25T05:55:11.152Z,98375.59
2023-02-25T05:57:39.841Z,98374.78
2023-02-25T06:00:14.865Z,98367.25
2023-02-25T06:02:45.427Z,98370.59
2023-02-25T06:05:14.693Z,98371.53
2023-02-25T06:07:43.269Z,98359.63
2023-02-25T06:10:13.185Z,98366.34
2023-02-25T06:12:43.451Z,98362.16
2023-02-25T06:15:14.606Z,98363.78
2023-02-25T06:17:44.643Z,98364.72
2023-02-25T06:20:16.517Z,98363.78
2023-02-25T06:22:45.232Z,98373.97
2023-02-25T06:25:13.826Z,98369.69
2023-02-25T06:27:42.485Z,98370.50
2023-02-25T06:30:12.656Z,98373.06
2023-02-25T06:32:41.366Z,98384.03
2023-02-25T06:35:11.763Z,98382.41
2023-02-25T06:37:40.369Z,98371.44
2023-02-25T06:40:12.514Z,98374.88
2023-02-25T06:42:41.200Z,98381.59
2023-02-25T06:45:11.182Z,98402.75
2023-02-25T06:47:39.840Z,98400.34
2023-02-25T06:50:12.262Z,98394.34
2023-02-25T06:52:41.328Z,98401.13
2023-02-25T06:55:11.317Z,98395.25
2023-02-25T06:57:39.971Z,98407.06
2023-02-25T07:00:10.535Z,98398.69
2023-02-25T07:02:39.290Z,98400.34
2023-02-25T07:05:08.299Z,98407.06
